sensor_id;sensor_type;location;lat;lon;timestamp;pressure;altitude;pressure_sealevel;temperature;humidity
74578;BME280;63173;49.086;33.418;2023-11-19T00:01:26;100789.19;;;-3.45;54.17
74578;BME280;63173;49.086;33.418;2023-11-19T00:03:51;100784.75;;;-3.72;53.67
74578;BME280;63173;49.086;33.418;2023-11-19T00:06:18;100776.81;;;-3.95;54.44
74578;BME280;63173;49.086;33.418;2023-11-19T00:08:44;100779.47;;;-3.62;54.87
74578;BME280;63173;49.086;33.418;2023-11-19T00:11:09;100784.00;;;-3.84;54.60
74578;BME280;63173;49.086;33.418;2023-11-19T00:13:35;100770.13;;;-3.76;55.03
74578;BME280;63173;49.086;33.418;2023-11-19T00:16:00;100769.47;;;-3.83;55.10
74578;BME280;63173;49.086;33.418;2023-11-19T00:18:25;100766.47;;;-3.49;54.60
74578;BME280;63173;49.086;33.418;2023-11-19T00:20:51;100758.28;;;-4.53;56.53
74578;BME280;63173;49.086;33.418;2023-11-19T00:23:16;100754.44;;;-4.12;56.52
74578;BME280;63173;49.086;33.418;2023-11-19T00:25:42;100740.25;;;-4.36;57.37
74578;BME280;63173;49.086;33.418;2023-11-19T00:28:07;100735.41;;;-4.51;57.64
74578;BME280;63173;49.086;33.418;2023-11-19T00:30:33;100737.22;;;-4.40;57.86
74578;BME280;63173;49.086;33.418;2023-11-19T00:32:58;100724.19;;;-3.98;56.71
74578;BME280;63173;49.086;33.418;2023-11-19T00:35:24;100709.09;;;-4.15;56.00
74578;BME280;63173;49.086;33.418;2023-11-19T00:37:49;100712.84;;;-4.16;55.39
74578;BME280;63173;49.086;33.418;2023-11-19T00:40:15;100708.19;;;-4.04;55.40
74578;BME280;63173;49.086;33.418;2023-11-19T00:42:43;100713.41;;;-4.31;55.70
74578;BME280;63173;49.086;33.418;2023-11-19T00:45:09;100718.03;;;-4.60;56.95
74578;BME280;63173;49.086;33.418;2023-11-19T00:47:35;100721.00;;;-3.78;54.98
74578;BME280;63173;49.086;33.418;2023-11-19T00:50:01;100710.53;;;-4.86;56.86
74578;BME280;63173;49.086;33.418;2023-11-19T00:52:27;100713.91;;;-4.01;56.43
74578;BME280;63173;49.086;33.418;2023-11-19T00:54:52;100701.78;;;-4.32;55.74
74578;BME280;63173;49.086;33.418;2023-11-19T00:57:17;100698.69;;;-3.90;55.45
74578;BME280;63173;49.086;33.418;2023-11-19T00:59:43;100692.56;;;-3.86;54.56
74578;BME280;63173;49.086;33.418;2023-11-19T01:02:08;100690.47;;;-4.78;56.33
74578;BME280;63173;49.086;33.418;2023-11-19T01:04:34;100693.34;;;-4.68;56.65
74578;BME280;63173;49.086;33.418;2023-11-19T01:07:03;100688.69;;;-4.73;58.05
74578;BME280;63173;49.086;33.418;2023-11-19T01:09:32;100685.75;;;-4.10;55.83
74578;BME280;63173;49.086;33.418;2023-11-19T01:11:59;100689.53;;;-4.39;55.84
74578;BME280;63173;49.086;33.418;2023-11-19T01:14:26;100691.81;;;-5.21;56.44
74578;BME280;63173;49.086;33.418;2023-11-19T01:16:51;100693.47;;;-4.30;55.53
74578;BME280;63173;49.086;33.418;2023-11-19T01:19:19;100701.09;;;-4.72;57.13
74578;BME280;63173;49.086;33.418;2023-11-19T01:21:44;100706.47;;;-3.94;55.90
74578;BME280;63173;49.086;33.418;2023-11-19T01:24:10;100708.66;;;-4.24;55.44
74578;BME280;63173;49.086;33.418;2023-11-19T01:26:38;100709.25;;;-3.89;53.63
74578;BME280;63173;49.086;33.418;2023-11-19T01:29:03;100715.84;;;-4.46;55.38
74578;BME280;63173;49.086;33.418;2023-11-19T01:31:30;100710.38;;;-4.18;55.65
74578;BME280;63173;49.086;33.418;2023-11-19T01:33:57;100721.81;;;-4.44;56.41
74578;BME280;63173;49.086;33.418;2023-11-19T01:36:22;100713.06;;;-4.79;56.96
74578;BME280;63173;49.086;33.418;2023-11-19T01:38:48;100726.09;;;-5.16;55.84
74578;BME280;63173;49.086;33.418;2023-11-19T01:41:14;100719.16;;;-4.72;58.21
74578;BME280;63173;49.086;33.418;2023-11-19T01:43:39;100719.41;;;-4.57;56.55
74578;BME280;63173;49.086;33.418;2023-11-19T01:46:08;100724.34;;;-5.10;57.11
74578;BME280;63173;49.086;33.418;2023-11-19T01:48:41;100739.03;;;-4.73;55.69
74578;BME280;63173;49.086;33.418;2023-11-19T01:51:08;100749.56;;;-5.00;56.47
74578;BME280;63173;49.086;33.418;2023-11-19T01:53:34;100739.44;;;-4.53;55.71
74578;BME280;63173;49.086;33.418;2023-11-19T01:56:02;100747.66;;;-4.43;55.94
74578;BME280;63173;49.086;33.418;2023-11-19T01:58:28;100747.31;;;-4.02;53.89
74578;BME280;63173;49.086;33.418;2023-11-19T02:00:56;100752.03;;;-4.26;55.13
74578;BME280;63173;49.086;33.418;2023-11-19T02:03:22;100747.91;;;-3.83;53.45
74578;BME280;63173;49.086;33.418;2023-11-19T02:05:51;100737.75;;;-3.76;52.99
74578;BME280;63173;49.086;33.418;2023-11-19T02:08:18;100730.91;;;-4.62;55.29
74578;BME280;63173;49.086;33.418;2023-11-19T02:10:45;100732.00;;;-4.46;55.13
74578;BME280;63173;49.086;33.418;2023-11-19T02:13:10;100738.19;;;-4.01;54.33
74578;BME280;63173;49.086;33.418;2023-11-19T02:15:38;100734.06;;;-4.20;54.28
74578;BME280;63173;49.086;33.418;2023-11-19T02:20:45;100721.03;;;-4.56;54.88
74578;BME280;63173;49.086;33.418;2023-11-19T02:23:12;100718.38;;;-4.23;53.92
74578;BME280;63173;49.086;33.418;2023-11-19T02:25:39;100717.56;;;-4.23;54.07
74578;BME280;63173;49.086;33.418;2023-11-19T02:28:05;100714.78;;;-4.90;55.84
74578;BME280;63173;49.086;33.418;2023-11-19T02:30:31;100712.19;;;-5.25;56.38
74578;BME280;63173;49.086;33.418;2023-11-19T02:32:58;100706.78;;;-5.13;57.54
74578;BME280;63173;49.086;33.418;2023-11-19T02:35:25;100714.50;;;-5.79;58.85
74578;BME280;63173;49.086;33.418;2023-11-19T02:37:51;100693.22;;;-5.18;57.61
74578;BME280;63173;49.086;33.418;2023-11-19T02:40:16;100687.81;;;-5.06;57.61
74578;BME280;63173;49.086;33.418;2023-11-19T02:42:42;100683.13;;;-5.39;56.98
74578;BME280;63173;49.086;33.418;2023-11-19T02:45:08;100680.03;;;-5.82;58.28
74578;BME280;63173;49.086;33.418;2023-11-19T02:47:39;100679.94;;;-6.22;60.07
74578;BME280;63173;49.086;33.418;2023-11-19T02:50:04;100683.66;;;-6.00;60.30
74578;BME280;63173;49.086;33.418;2023-11-19T02:52:35;100669.50;;;-5.72;58.58
74578;BME280;63173;49.086;33.418;2023-11-19T02:55:02;100679.56;;;-5.91;59.27
74578;BME280;63173;49.086;33.418;2023-11-19T02:57:31;100671.41;;;-6.31;60.34
74578;BME280;63173;49.086;33.418;2023-11-19T02:59:57;100667.53;;;-5.77;59.30
74578;BME280;63173;49.086;33.418;2023-11-19T03:02:24;100666.91;;;-5.56;57.85
74578;BME280;63173;49.086;33.418;2023-11-19T03:04:59;100661.25;;;-6.17;60.22
74578;BME280;63173;49.086;33.418;2023-11-19T03:07:24;100647.94;;;-6.24;60.46
74578;BME280;63173;49.086;33.418;2023-11-19T03:09:49;100646.41;;;-6.31;61.32
74578;BME280;63173;49.086;33.418;2023-11-19T03:12:15;100643.91;;;-5.75;59.35
74578;BME280;63173;49.086;33.418;2023-11-19T03:14:40;100645.81;;;-6.45;61.51
74578;BME280;63173;49.086;33.418;2023-11-19T03:17:06;100621.34;;;-5.85;60.46
74578;BME280;63173;49.086;33.418;2023-11-19T03:19:31;100625.94;;;-6.55;60.54
74578;BME280;63173;49.086;33.418;2023-11-19T03:21:56;100632.03;;;-6.25;60.72
74578;BME280;63173;49.086;33.418;2023-11-19T03:24:22;100636.81;;;-6.04;60.30
74578;BME280;63173;49.086;33.418;2023-11-19T03:26:50;100640.31;;;-5.92;59.74
74578;BME280;63173;49.086;33.418;2023-11-19T03:29:16;100643.31;;;-5.65;57.85
74578;BME280;63173;49.086;33.418;2023-11-19T03:31:42;100637.94;;;-5.77;60.05
74578;BME280;63173;49.086;33.418;2023-11-19T03:34:08;100652.72;;;-6.14;58.57
74578;BME280;63173;49.086;33.418;2023-11-19T03:36:33;100648.03;;;-5.84;58.54
74578;BME280;63173;49.086;33.418;2023-11-19T03:38:59;100642.97;;;-5.69;58.56
74578;BME280;63173;49.086;33.418;2023-11-19T03:41:24;100645.75;;;-5.24;56.01
74578;BME280;63173;49.086;33.418;2023-11-19T03:43:50;100645.59;;;-5.57;57.69
74578;BME280;63173;49.086;33.418;2023-11-19T03:46:19;100647.34;;;-5.51;56.32
74578;BME280;63173;49.086;33.418;2023-11-19T03:48:44;100649.09;;;-5.17;56.56
74578;BME280;63173;49.086;33.418;2023-11-19T03:51:11;100651.34;;;-5.54;58.14
74578;BME280;63173;49.086;33.418;2023-11-19T03:53:42;100658.41;;;-5.87;59.32
74578;BME280;63173;49.086;33.418;2023-11-19T03:56:08;100670.47;;;-6.36;61.00
74578;BME280;63173;49.086;33.418;2023-11-19T03:58:34;100653.84;;;-5.87;59.94
74578;BME280;63173;49.086;33.418;2023-11-19T04:01:01;100643.63;;;-5.50;59.18
74578;BME280;63173;49.086;33.418;2023-11-19T04:03:26;100661.47;;;-6.30;61.29
74578;BME280;63173;49.086;33.418;2023-11-19T04:05:52;100662.88;;;-6.51;62.05
74578;BME280;63173;49.086;33.418;2023-11-19T04:08:17;100661.91;;;-6.56;61.90
74578;BME280;63173;49.086;33.418;2023-11-19T04:10:42;100672.09;;;-6.12;61.38
74578;BME280;63173;49.086;33.418;2023-11-19T04:13:08;100664.75;;;-6.28;60.86
74578;BME280;63173;49.086;33.418;2023-11-19T04:15:33;100661.69;;;-5.85;60.81
74578;BME280;63173;49.086;33.418;2023-11-19T04:17:59;100667.19;;;-6.15;60.19
74578;BME280;63173;49.086;33.418;2023-11-19T04:20:24;100661.66;;;-5.62;61.28
74578;BME280;63173;49.086;33.418;2023-11-19T04:22:50;100669.19;;;-5.99;60.35
74578;BME280;63173;49.086;33.418;2023-11-19T04:25:16;100651.56;;;-6.18;61.83
74578;BME280;63173;49.086;33.418;2023-11-19T04:27:42;100650.50;;;-6.17;62.13
74578;BME280;63173;49.086;33.418;2023-11-19T04:30:07;100661.03;;;-6.39;62.48
74578;BME280;63173;49.086;33.418;2023-11-19T04:32:35;100645.00;;;-6.34;63.07
74578;BME280;63173;49.086;33.418;2023-11-19T04:35:00;100645.09;;;-6.40;62.75
74578;BME280;63173;49.086;33.418;2023-11-19T04:37:26;100646.50;;;-6.49;62.76
74578;BME280;63173;49.086;33.418;2023-11-19T04:39:51;100650.63;;;-6.35;62.00
74578;BME280;63173;49.086;33.418;2023-11-19T04:42:17;100651.16;;;-5.75;61.51
74578;BME280;63173;49.086;33.418;2023-11-19T04:44:43;100661.00;;;-6.50;61.41
74578;BME280;63173;49.086;33.418;2023-11-19T04:47:09;100646.63;;;-6.67;63.69
74578;BME280;63173;49.086;33.418;2023-11-19T04:49:42;100641.56;;;-6.75;63.57
74578;BME280;63173;49.086;33.418;2023-11-19T04:52:11;100653.31;;;-6.24;62.39
74578;BME280;63173;49.086;33.418;2023-11-19T04:54:46;100661.13;;;-6.10;61.13
74578;BME280;63173;49.086;33.418;2023-11-19T04:57:11;100649.41;;;-6.62;63.35
74578;BME280;63173;49.086;33.418;2023-11-19T04:59:37;100632.00;;;-6.83;63.23
74578;BME280;63173;49.086;33.418;2023-11-19T05:02:03;100631.91;;;-6.30;63.66
74578;BME280;63173;49.086;33.418;2023-11-19T05:04:29;100647.81;;;-6.17;62.30
74578;BME280;63173;49.086;33.418;2023-11-19T05:06:55;100631.84;;;-5.72;61.14
74578;BME280;63173;49.086;33.418;2023-11-19T05:09:20;100638.91;;;-5.43;59.06
74578;BME280;63173;49.086;33.418;2023-11-19T05:11:46;100624.31;;;-5.47;61.01
74578;BME280;63173;49.086;33.418;2023-11-19T05:14:11;100627.47;;;-5.90;60.93
74578;BME280;63173;49.086;33.418;2023-11-19T05:16:40;100650.84;;;-6.02;60.95
74578;BME280;63173;49.086;33.418;2023-11-19T05:19:06;100647.28;;;-5.28;59.27
74578;BME280;63173;49.086;33.418;2023-11-19T05:21:31;100640.47;;;-5.59;57.50
74578;BME280;63173;49.086;33.418;2023-11-19T05:23:56;100634.72;;;-5.51;58.19
74578;BME280;63173;49.086;33.418;2023-11-19T05:26:23;100643.59;;;-5.90;60.00
74578;BME280;63173;49.086;33.418;2023-11-19T05:28:49;100639.38;;;-5.74;58.47
74578;BME280;63173;49.086;33.418;2023-11-19T05:31:16;100635.28;;;-6.00;60.05
74578;BME280;63173;49.086;33.418;2023-11-19T05:33:43;100629.03;;;-5.66;60.67
74578;BME280;63173;49.086;33.418;2023-11-19T05:36:08;100641.59;;;-6.29;59.86
74578;BME280;63173;49.086;33.418;2023-11-19T05:38:36;100628.31;;;-5.50;60.51
74578;BME280;63173;49.086;33.418;2023-11-19T05:41:02;100632.84;;;-6.01;60.57
74578;BME280;63173;49.086;33.418;2023-11-19T05:43:28;100635.53;;;-5.90;60.81
74578;BME280;63173;49.086;33.418;2023-11-19T05:45:53;100632.63;;;-5.49;58.94
74578;BME280;63173;49.086;33.418;2023-11-19T05:48:19;100636.47;;;-5.96;58.63
74578;BME280;63173;49.086;33.418;2023-11-19T05:50:44;100639.41;;;-6.32;60.55
74578;BME280;63173;49.086;33.418;2023-11-19T05:53:10;100637.06;;;-6.17;59.85
74578;BME280;63173;49.086;33.418;2023-11-19T05:55:36;100634.13;;;-6.62;62.61
74578;BME280;63173;49.086;33.418;2023-11-19T05:58:10;100616.25;;;-6.10;60.19
74578;BME280;63173;49.086;33.418;2023-11-19T06:00:38;100612.00;;;-5.71;60.44
74578;BME280;63173;49.086;33.418;2023-11-19T06:03:03;100607.78;;;-5.67;59.41
74578;BME280;63173;49.086;33.418;2023-11-19T06:05:29;100600.97;;;-6.56;61.43
74578;BME280;63173;49.086;33.418;2023-11-19T06:07:54;100609.25;;;-6.80;62.50
74578;BME280;63173;49.086;33.418;2023-11-19T06:10:20;100611.25;;;-6.30;61.28
74578;BME280;63173;49.086;33.418;2023-11-19T06:12:46;100590.81;;;-5.40;59.24
74578;BME280;63173;49.086;33.418;2023-11-19T06:15:11;100598.75;;;-6.12;59.67
74578;BME280;63173;49.086;33.418;2023-11-19T06:17:37;100604.59;;;-6.50;61.22
74578;BME280;63173;49.086;33.418;2023-11-19T06:20:04;100606.16;;;-5.80;60.30
74578;BME280;63173;49.086;33.418;2023-11-19T06:22:30;100599.81;;;-5.74;59.11
74578;BME280;63173;49.086;33.418;2023-11-19T06:24:56;100600.50;;;-6.41;60.22
74578;BME280;63173;49.086;33.418;2023-11-19T06:27:22;100591.25;;;-5.99;60.06
74578;BME280;63173;49.086;33.418;2023-11-19T06:29:47;100574.81;;;-6.26;60.23
74578;BME280;63173;49.086;33.418;2023-11-19T06:32:13;100578.34;;;-5.85;60.22
74578;BME280;63173;49.086;33.418;2023-11-19T06:34:38;100588.34;;;-6.44;60.63
74578;BME280;63173;49.086;33.418;2023-11-19T06:37:04;100584.41;;;-6.41;60.14
74578;BME280;63173;49.086;33.418;2023-11-19T06:39:30;100573.13;;;-5.92;60.40
74578;BME280;63173;49.086;33.418;2023-11-19T06:41:55;100570.81;;;-6.23;59.60
74578;BME280;63173;49.086;33.418;2023-11-19T06:44:20;100573.94;;;-5.91;59.55
74578;BME280;63173;49.086;33.418;2023-11-19T06:46:48;100566.03;;;-5.42;59.19
74578;BME280;63173;49.086;33.418;2023-11-19T06:49:13;100570.69;;;-6.05;60.25
74578;BME280;63173;49.086;33.418;2023-11-19T06:51:42;100576.34;;;-6.41;60.17
74578;BME280;63173;49.086;33.418;2023-11-19T06:54:09;100585.84;;;-6.91;62.25
74578;BME280;63173;49.086;33.418;2023-11-19T06:56:34;100589.69;;;-5.95;60.29
74578;BME280;63173;49.086;33.418;2023-11-19T06:58:59;100575.84;;;-6.27;60.09
74578;BME280;63173;49.086;33.418;2023-11-19T07:01:25;100577.28;;;-6.36;61.02
74578;BME280;63173;49.086;33.418;2023-11-19T07:03:50;100570.22;;;-6.02;61.08
74578;BME280;63173;49.086;33.418;2023-11-19T07:06:16;100580.41;;;-6.27;60.26
74578;BME280;63173;49.086;33.418;2023-11-19T07:08:42;100589.06;;;-5.74;61.24
74578;BME280;63173;49.086;33.418;2023-11-19T07:11:10;100582.16;;;-6.21;60.47
74578;BME280;63173;49.086;33.418;2023-11-19T07:13:37;100578.19;;;-6.07;59.62
74578;BME280;63173;49.086;33.418;2023-11-19T07:16:03;100580.06;;;-6.19;60.80
74578;BME280;63173;49.086;33.418;2023-11-19T07:18:29;100588.16;;;-5.23;58.28
74578;BME280;63173;49.086;33.418;2023-11-19T07:20:55;100589.88;;;-6.25;59.35
74578;BME280;63173;49.086;33.418;2023-11-19T07:23:21;100590.63;;;-5.89;60.49
74578;BME280;63173;49.086;33.418;2023-11-19T07:25:46;100604.84;;;-5.66;59.99
74578;BME280;63173;49.086;33.418;2023-11-19T07:28:13;100595.50;;;-5.75;59.18
74578;BME280;63173;49.086;33.418;2023-11-19T07:30:38;100602.97;;;-4.76;58.11
74578;BME280;63173;49.086;33.418;2023-11-19T07:33:04;100602.81;;;-4.53;56.28
74578;BME280;63173;49.086;33.418;2023-11-19T07:35:30;100606.28;;;-5.18;59.16
74578;BME280;63173;49.086;33.418;2023-11-19T07:37:56;100603.22;;;-4.77;56.62
74578;BME280;63173;49.086;33.418;2023-11-19T07:40:23;100609.44;;;-4.27;55.37
74578;BME280;63173;49.086;33.418;2023-11-19T07:42:48;100615.66;;;-5.21;56.48
74578;BME280;63173;49.086;33.418;2023-11-19T07:45:14;100611.75;;;-4.69;56.51
74578;BME280;63173;49.086;33.418;2023-11-19T07:47:39;100618.97;;;-4.36;55.99
74578;BME280;63173;49.086;33.418;2023-11-19T07:50:05;100607.06;;;-4.57;55.27
74578;BME280;63173;49.086;33.418;2023-11-19T07:52:31;100618.41;;;-4.05;54.46
74578;BME280;63173;49.086;33.418;2023-11-19T07:54:56;100616.78;;;-4.89;56.93
74578;BME280;63173;49.086;33.418;2023-11-19T07:57:22;100611.31;;;-4.28;55.60
74578;BME280;63173;49.086;33.418;2023-11-19T07:59:49;100613.59;;;-4.36;55.44
74578;BME280;63173;49.086;33.418;2023-11-19T08:02:14;100612.69;;;-4.08;55.00
74578;BME280;63173;49.086;33.418;2023-11-19T08:04:40;100610.88;;;-4.03;54.28
74578;BME280;63173;49.086;33.418;2023-11-19T08:07:10;100609.38;;;-4.65;54.82
74578;BME280;63173;49.086;33.418;2023-11-19T08:09:36;100610.34;;;-4.38;55.56
74578;BME280;63173;49.086;33.418;2023-11-19T08:12:03;100609.66;;;-4.29;55.80
74578;BME280;63173;49.086;33.418;2023-11-19T08:14:29;100604.25;;;-3.95;54.04
74578;BME280;63173;49.086;33.418;2023-11-19T08:16:54;100602.00;;;-4.86;55.73
74578;BME280;63173;49.086;33.418;2023-11-19T08:19:20;100607.72;;;-4.33;56.01
74578;BME280;63173;49.086;33.418;2023-11-19T08:21:45;100595.28;;;-4.17;55.50
74578;BME280;63173;49.086;33.418;2023-11-19T08:24:10;100604.88;;;-3.88;54.91
74578;BME280;63173;49.086;33.418;2023-11-19T08:26:36;100598.78;;;-4.00;55.33
74578;BME280;63173;49.086;33.418;2023-11-19T08:29:01;100590.31;;;-4.09;55.92
74578;BME280;63173;49.086;33.418;2023-11-19T08:31:27;100584.94;;;-3.87;54.88
74578;BME280;63173;49.086;33.418;2023-11-19T08:33:52;100580.66;;;-4.05;55.07
74578;BME280;63173;49.086;33.418;2023-11-19T08:36:17;100576.41;;;-4.01;54.61
74578;BME280;63173;49.086;33.418;2023-11-19T08:38:43;100563.81;;;-4.50;56.80
74578;BME280;63173;49.086;33.418;2023-11-19T08:41:08;100551.19;;;-4.99;56.66
74578;BME280;63173;49.086;33.418;2023-11-19T08:43:35;100532.50;;;-4.89;58.84
74578;BME280;63173;49.086;33.418;2023-11-19T08:46:00;100529.31;;;-5.03;59.08
74578;BME280;63173;49.086;33.418;2023-11-19T08:48:26;100514.31;;;-4.99;58.31
74578;BME280;63173;49.086;33.418;2023-11-19T08:50:52;100504.16;;;-5.42;58.62
74578;BME280;63173;49.086;33.418;2023-11-19T08:53:17;100498.22;;;-5.72;59.99
74578;BME280;63173;49.086;33.418;2023-11-19T08:55:42;100484.22;;;-5.74;61.96
74578;BME280;63173;49.086;33.418;2023-11-19T08:58:08;100479.94;;;-5.86;61.83
74578;BME280;63173;49.086;33.418;2023-11-19T09:00:33;100476.53;;;-5.04;61.17
74578;BME280;63173;49.086;33.418;2023-11-19T09:02:59;100478.72;;;-5.34;61.47
74578;BME280;63173;49.086;33.418;2023-11-19T09:05:24;100469.66;;;-4.78;60.65
74578;BME280;63173;49.086;33.418;2023-11-19T09:07:50;100461.50;;;-4.23;57.42
74578;BME280;63173;49.086;33.418;2023-11-19T09:10:15;100458.16;;;-4.90;59.47
74578;BME280;63173;49.086;33.418;2023-11-19T09:12:41;100451.16;;;-5.08;59.82
74578;BME280;63173;49.086;33.418;2023-11-19T09:15:07;100456.97;;;-4.40;58.72
74578;BME280;63173;49.086;33.418;2023-11-19T09:17:32;100452.09;;;-5.02;59.09
74578;BME280;63173;49.086;33.418;2023-11-19T09:19:58;100454.25;;;-5.33;58.73
74578;BME280;63173;49.086;33.418;2023-11-19T09:22:23;100450.59;;;-4.55;58.66
74578;BME280;63173;49.086;33.418;2023-11-19T09:24:49;100438.69;;;-4.97;59.51
74578;BME280;63173;49.086;33.418;2023-11-19T09:27:14;100435.44;;;-4.40;59.75
74578;BME280;63173;49.086;33.418;2023-11-19T09:29:39;100442.38;;;-5.20;60.05
74578;BME280;63173;49.086;33.418;2023-11-19T09:32:05;100437.06;;;-5.48;59.67
74578;BME280;63173;49.086;33.418;2023-11-19T09:34:31;100442.53;;;-4.72;60.42
74578;BME280;63173;49.086;33.418;2023-11-19T09:36:57;100433.75;;;-4.24;57.92
74578;BME280;63173;49.086;33.418;2023-11-19T09:39:22;100433.56;;;-4.17;58.48
74578;BME280;63173;49.086;33.418;2023-11-19T09:41:48;100429.47;;;-5.01;58.41
74578;BME280;63173;49.086;33.418;2023-11-19T09:44:14;100422.56;;;-5.14;61.60
74578;BME280;63173;49.086;33.418;2023-11-19T09:46:43;100416.56;;;-4.61;58.37
74578;BME280;63173;49.086;33.418;2023-11-19T09:49:10;100423.78;;;-4.45;58.49
74578;BME280;63173;49.086;33.418;2023-11-19T09:51:35;100420.13;;;-4.77;60.41
74578;BME280;63173;49.086;33.418;2023-11-19T09:54:01;100414.56;;;-4.49;60.14
74578;BME280;63173;49.086;33.418;2023-11-19T09:56:29;100423.59;;;-4.60;58.52
74578;BME280;63173;49.086;33.418;2023-11-19T09:58:55;100411.47;;;-4.36;57.82
74578;BME280;63173;49.086;33.418;2023-11-19T10:01:20;100416.94;;;-4.53;58.08
74578;BME280;63173;49.086;33.418;2023-11-19T10:03:47;100410.53;;;-4.68;59.44
74578;BME280;63173;49.086;33.418;2023-11-19T10:06:13;100397.78;;;-4.56;58.54
74578;BME280;63173;49.086;33.418;2023-11-19T10:08:41;100397.53;;;-5.14;60.71
74578;BME280;63173;49.086;33.418;2023-11-19T10:11:08;100396.47;;;-4.54;59.90
74578;BME280;63173;49.086;33.418;2023-11-19T10:13:35;100395.81;;;-3.64;57.90
74578;BME280;63173;49.086;33.418;2023-11-19T10:16:13;100391.31;;;-4.12;58.62
74578;BME280;63173;49.086;33.418;2023-11-19T10:21:12;100388.22;;;-5.07;61.16
74578;BME280;63173;49.086;33.418;2023-11-19T10:23:59;100382.53;;;-4.89;59.52
74578;BME280;63173;49.086;33.418;2023-11-19T10:26:26;100376.53;;;-4.96;60.71
74578;BME280;63173;49.086;33.418;2023-11-19T10:28:52;100362.84;;;-4.73;61.90
74578;BME280;63173;49.086;33.418;2023-11-19T10:31:19;100350.44;;;-5.67;62.35
74578;BME280;63173;49.086;33.418;2023-11-19T10:33:46;100362.88;;;-4.68;61.40
74578;BME280;63173;49.086;33.418;2023-11-19T10:36:12;100344.16;;;-5.01;62.10
74578;BME280;63173;49.086;33.418;2023-11-19T10:38:39;100343.88;;;-5.38;63.28
74578;BME280;63173;49.086;33.418;2023-11-19T10:41:05;100340.00;;;-5.08;63.00
74578;BME280;63173;49.086;33.418;2023-11-19T10:43:31;100326.00;;;-5.10;62.32
74578;BME280;63173;49.086;33.418;2023-11-19T10:46:13;100330.97;;;-5.19;63.57
74578;BME280;63173;49.086;33.418;2023-11-19T10:48:39;100338.50;;;-4.56;61.46
74578;BME280;63173;49.086;33.418;2023-11-19T10:51:07;100339.41;;;-4.94;62.41
74578;BME280;63173;49.086;33.418;2023-11-19T10:53:37;100342.41;;;-5.12;63.37
74578;BME280;63173;49.086;33.418;2023-11-19T10:56:06;100336.84;;;-4.84;62.05
74578;BME280;63173;49.086;33.418;2023-11-19T10:58:36;100344.50;;;-5.52;62.48
74578;BME280;63173;49.086;33.418;2023-11-19T11:01:09;100323.13;;;-5.42;63.81
74578;BME280;63173;49.086;33.418;2023-11-19T11:03:40;100331.00;;;-4.76;61.63
74578;BME280;63173;49.086;33.418;2023-11-19T11:06:06;100326.88;;;-5.05;62.31
74578;BME280;63173;49.086;33.418;2023-11-19T11:08:36;100328.13;;;-5.12;62.62
74578;BME280;63173;49.086;33.418;2023-11-19T11:11:02;100326.53;;;-5.47;62.01
74578;BME280;63173;49.086;33.418;2023-11-19T11:13:29;100336.25;;;-5.79;64.76
74578;BME280;63173;49.086;33.418;2023-11-19T11:15:57;100326.72;;;-5.37;64.27
74578;BME280;63173;49.086;33.418;2023-11-19T11:18:26;100334.84;;;-4.93;62.82
74578;BME280;63173;49.086;33.418;2023-11-19T11:20:54;100327.50;;;-5.36;63.56
74578;BME280;63173;49.086;33.418;2023-11-19T11:29:11;100321.84;;;-5.18;62.68
74578;BME280;63173;49.086;33.418;2023-11-19T11:39:49;100288.88;;;-5.47;64.27
74578;BME280;63173;49.086;33.418;2023-11-19T11:45:06;100280.34;;;-5.22;62.82
74578;BME280;63173;49.086;33.418;2023-11-19T11:50:16;100290.06;;;-4.99;62.48
74578;BME280;63173;49.086;33.418;2023-11-19T11:55:28;100283.03;;;-5.22;62.96
74578;BME280;63173;49.086;33.418;2023-11-19T11:57:55;100272.97;;;-4.88;61.91
74578;BME280;63173;49.086;33.418;2023-11-19T12:00:37;100279.00;;;-5.03;63.04
74578;BME280;63173;49.086;33.418;2023-11-19T12:03:06;100273.53;;;-5.30;64.35
74578;BME280;63173;49.086;33.418;2023-11-19T12:05:32;100278.91;;;-5.30;63.04
74578;BME280;63173;49.086;33.418;2023-11-19T12:08:05;100268.56;;;-5.59;63.49
74578;BME280;63173;49.086;33.418;2023-11-19T12:10:36;100286.34;;;-5.53;62.93
74578;BME280;63173;49.086;33.418;2023-11-19T12:13:06;100282.69;;;-5.09;64.58
74578;BME280;63173;49.086;33.418;2023-11-19T12:15:32;100281.31;;;-4.90;62.01
74578;BME280;63173;49.086;33.418;2023-11-19T12:17:58;100277.53;;;-4.67;63.20
74578;BME280;63173;49.086;33.418;2023-11-19T12:20:25;100276.69;;;-5.33;63.79
74578;BME280;63173;49.086;33.418;2023-11-19T12:22:52;100271.50;;;-5.39;63.25
74578;BME280;63173;49.086;33.418;2023-11-19T12:25:18;100277.44;;;-4.99;64.14
74578;BME280;63173;49.086;33.418;2023-11-19T12:27:49;100282.00;;;-4.99;63.17
74578;BME280;63173;49.086;33.418;2023-11-19T12:30:25;100271.56;;;-4.69;62.82
74578;BME280;63173;49.086;33.418;2023-11-19T12:32:51;100279.28;;;-5.21;62.92
74578;BME280;63173;49.086;33.418;2023-11-19T12:35:19;100276.78;;;-5.66;64.13
74578;BME280;63173;49.086;33.418;2023-11-19T12:37:49;100270.78;;;-5.35;64.94
74578;BME280;63173;49.086;33.418;2023-11-19T12:40:19;100273.47;;;-5.35;64.88
74578;BME280;63173;49.086;33.418;2023-11-19T12:42:46;100267.25;;;-5.73;64.19
74578;BME280;63173;49.086;33.418;2023-11-19T12:45:12;100269.28;;;-5.26;64.84
74578;BME280;63173;49.086;33.418;2023-11-19T12:47:44;100269.22;;;-5.69;64.48
74578;BME280;63173;49.086;33.418;2023-11-19T12:50:12;100272.72;;;-5.08;63.76
74578;BME280;63173;49.086;33.418;2023-11-19T12:52:37;100262.44;;;-6.04;65.26
74578;BME280;63173;49.086;33.418;2023-11-19T12:55:25;100247.16;;;-5.49;65.08
74578;BME280;63173;49.086;33.418;2023-11-19T12:57:54;100249.69;;;-5.43;65.41
74578;BME280;63173;49.086;33.418;2023-11-19T13:00:24;100248.75;;;-5.10;64.89
74578;BME280;63173;49.086;33.418;2023-11-19T13:02:55;100253.88;;;-5.30;64.53
74578;BME280;63173;49.086;33.418;2023-11-19T13:07:49;100246.28;;;-5.55;64.19